Ana Sayfa
METAR-TAF:

METAR-TAF

Havaalanları :

Satu Mare, Romanya

Enlem: 47-48N, Boylam: 022-53E, yükseklik: 123 m

Güncel hava durumu gözlemi

Rapor saat 12:00 UTC de 32 dakika önce yapıldı.
Rüzgar doğu/güneydoğudan 4 kt, doğu ve güneydoğu arasında değişken
Sıcaklık 4°C
Nem 100%
Basınç 1019 hPa
Görüş mesafesi: 2000 m
100 ft yükseklikte parçalı bulutlu
800 ft yükseklikte çok bulutlu
Pus

METAR: LRSM 081200Z 11004KT 080V140 2000 BR SCT001 OVC008 04/04 Q1019 R01/19//95

Saat: 14:32 (12:32 UTC)

Tahmin

Rapor saat 11:00 UTC de 1 saat ve 32 dakika önce yapıldı.
Ayın 08'si saat 12 UTC'den ayın 08'si saat 21 UTC'ye kadar geçerli Tahmin
Rüzgar değişken yönden 4 kt
Görüş mesafesi: 0400 m
100 ft yükseklikte parçalı çok bulutlu
300 ft yükseklikte çok bulutlu
sis
Geçici
ayın 08'si saat 12 UTC'den ayın 08'si saat 15 UTC'ye kadar
Görüş mesafesi: 0800 m
500 ft yükseklikte çok bulutlu

TAF: LRSM 081100Z 0812/0821 VRB04KT 0400 FG BKN001 OVC003 TEMPO 0812/0815 0800 OVC005

4.000'den fazla havaalanı için hava durumu gözlemleri ve tahminleri (METAR ve TAF raporları).

Kullanılabilir istasyonlar harita üzerinde sarı ve kırmızı noktalarla gösterilir.

İstasyonun adını görmek için fareyi noktanın üzerinde gezdirin.

Sonrasında hava gözlem ve tahminlerini görmek için tıklayın.

Haritayı değiştirmek için: yaklaştırmak için siyah artı işaretli yeşil düğmeye ve uzaklaştırmak için de eksi işaretli düğmeye hızla tıklayın; bitişik haritalar için yeşil okları kullanın.


METAR-TAF: